Time;durP1;ratioP1;P1;durP2;ratioP2;P2;SDS_P1;SDS_P2;PMS_P1;PMS_P2;Temp;Humidity;BMP_temperature;BMP_pressure;BME280_temperature;BME280_humidity;BME280_pressure;Samples;Min_cycle;Max_cycle;Signal;HPM_P1;HPM_P2
2021/07/10 00:00:14;;;;;;;13.60;9.65;;;15.80;99.90;;;;;;5027304;28;20057;-82
2021/07/10 00:02:40;;;;;;;13.98;10.10;;;15.70;99.90;;;;;;4993577;28;20025;-83
2021/07/10 00:05:08;;;;;;;16.17;10.80;;;15.60;99.90;;;;;;4993582;28;20037;-83
2021/07/10 00:07:34;;;;;;;12.90;9.15;;;15.70;99.90;;;;;;5009639;28;20034;-82
2021/07/10 00:10:03;;;;;;;15.60;10.48;;;15.50;99.90;;;;;;4993445;28;20053;-83
2021/07/10 00:12:28;;;;;;;13.90;10.02;;;15.50;99.90;;;;;;5026089;28;20056;-83
2021/07/10 00:14:54;;;;;;;13.27;9.70;;;15.50;99.90;;;;;;5026103;28;20041;-82
2021/07/10 00:17:23;;;;;;;16.77;11.02;;;15.60;99.90;;;;;;5009668;28;20030;-83
2021/07/10 00:19:52;;;;;;;15.98;11.05;;;15.50;99.90;;;;;;5009575;28;20038;-82
2021/07/10 00:22:18;;;;;;;15.88;11.60;;;15.50;99.90;;;;;;4993283;28;20121;-83
2021/07/10 00:24:44;;;;;;;16.65;11.00;;;15.40;99.90;;;;;;5009792;28;20048;-83
2021/07/10 00:27:10;;;;;;;15.07;10.10;;;15.30;99.90;;;;;;4993318;28;20034;-82
2021/07/10 00:29:36;;;;;;;15.75;10.73;;;15.30;99.90;;;;;;5025659;28;20109;-82
2021/07/10 00:32:01;;;;;;;15.35;10.82;;;15.20;99.90;;;;;;4993379;28;20034;-82
2021/07/10 00:34:27;;;;;;;14.50;10.25;;;15.20;99.90;;;;;;5026839;28;20022;-83
2021/07/10 00:36:53;;;;;;;14.93;10.60;;;15.30;99.90;;;;;;5026940;28;20033;-83
2021/07/10 00:39:19;;;;;;;16.17;10.27;;;15.20;99.90;;;;;;5009207;28;20030;-83
2021/07/10 00:41:45;;;;;;;15.38;11.00;;;15.20;99.90;;;;;;5009394;28;20033;-83
2021/07/10 00:44:11;;;;;;;15.65;11.20;;;15.20;99.90;;;;;;4993122;28;20034;-82
2021/07/10 00:46:57;;;;;;;13.38;10.30;;;15.20;99.90;;;;;;5026655;28;20030;-82
2021/07/10 00:49:22;;;;;;;17.55;12.27;;;15.20;99.90;;;;;;4968255;28;20055;-82
2021/07/10 00:51:48;;;;;;;15.18;11.55;;;15.20;99.90;;;;;;4985190;28;20078;-82
2021/07/10 00:54:14;;;;;;;14.63;10.10;;;15.10;99.90;;;;;;4955160;28;20043;-82
2021/07/10 00:56:41;;;;;;;14.55;10.18;;;15.00;99.90;;;;;;4971830;28;20031;-82
2021/07/10 00:59:07;;;;;;;14.38;10.07;;;15.00;99.90;;;;;;4971798;28;20046;-82
2021/07/10 01:01:33;;;;;;;15.93;10.43;;;15.00;99.90;;;;;;4988161;28;20053;-82
2021/07/10 01:03:59;;;;;;;15.05;10.57;;;15.00;99.90;;;;;;4971803;28;20034;-81
2021/07/10 01:06:24;;;;;;;15.30;10.38;;;15.00;99.90;;;;;;4971894;28;20042;-82
2021/07/10 01:08:52;;;;;;;16.58;10.95;;;14.90;99.90;;;;;;4987834;28;20121;-80
2021/07/10 01:11:17;;;;;;;15.38;10.45;;;14.90;99.90;;;;;;4971939;28;20031;-82
2021/07/10 01:13:43;;;;;;;15.77;11.55;;;14.90;99.90;;;;;;4988326;28;20565;-83
2021/07/10 01:16:09;;;;;;;15.70;10.80;;;14.90;99.90;;;;;;4987942;28;20053;-82
2021/07/10 01:18:36;;;;;;;16.55;11.32;;;14.80;99.90;;;;;;4971417;28;20042;-82
2021/07/10 01:21:01;;;;;;;16.65;11.80;;;14.80;99.90;;;;;;4987826;28;20039;-81
2021/07/10 01:23:27;;;;;;;16.17;11.20;;;14.90;99.90;;;;;;4987861;28;20034;-81
2021/07/10 01:25:53;;;;;;;15.18;11.40;;;14.90;99.90;;;;;;4993672;28;20068;-82
2021/07/10 01:28:20;;;;;;;16.75;12.05;;;14.90;99.90;;;;;;4991885;28;20041;-81
2021/07/10 01:30:48;;;;;;;15.68;12.18;;;14.90;99.90;;;;;;5008444;28;20037;-82
2021/07/10 01:33:14;;;;;;;15.80;12.40;;;14.80;99.90;;;;;;4992043;28;20034;-81
2021/07/10 01:35:40;;;;;;;17.35;11.32;;;14.90;99.90;;;;;;4992068;28;20049;-82
2021/07/10 01:38:10;;;;;;;15.98;11.07;;;15.00;99.90;;;;;;4991942;28;20030;-82
2021/07/10 01:40:36;;;;;;;;;;;15.00;99.90;;;;;;5008841;28;20034;-82
2021/07/10 01:43:04;;;;;;;14.77;10.00;;;15.10;99.90;;;;;;4992112;28;19910;-82
2021/07/10 01:45:31;;;;;;;13.52;10.35;;;15.10;99.90;;;;;;4992135;28;20026;-82
2021/07/10 01:47:57;;;;;;;19.15;11.07;;;15.10;99.90;;;;;;5005759;23;20052;-82
2021/07/10 01:50:23;;;;;;;15.00;10.82;;;15.10;99.90;;;;;;5035413;28;20046;-83
2021/07/10 01:52:49;;;;;;;15.93;10.90;;;15.00;99.90;;;;;;5027679;28;20109;-82
2021/07/10 01:55:17;;;;;;;15.30;11.07;;;15.10;99.90;;;;;;5034484;28;20044;-83
2021/07/10 01:57:51;;;;;;;15.45;10.55;;;15.10;99.90;;;;;;5028073;28;20053;-82
2021/07/10 02:00:20;;;;;;;14.25;9.77;;;15.00;99.90;;;;;;5044354;28;20061;-83
2021/07/10 02:02:47;;;;;;;15.50;10.70;;;15.00;99.90;;;;;;5040027;28;20046;-82
2021/07/10 02:05:21;;;;;;;15.18;11.40;;;15.00;99.90;;;;;;5008126;28;20034;-83
2021/07/10 02:07:50;;;;;;;18.95;12.23;;;15.00;99.90;;;;;;5009452;28;20038;-82
2021/07/10 02:10:18;;;;;;;18.70;11.82;;;15.00;99.90;;;;;;5028320;28;20030;-82
2021/07/10 02:12:46;;;;;;;15.45;10.80;;;15.00;99.90;;;;;;5028393;28;20026;-82
2021/07/10 02:15:13;;;;;;;16.02;10.93;;;14.90;99.90;;;;;;5028285;28;20033;-83
2021/07/10 02:17:38;;;;;;;15.07;10.90;;;15.00;99.90;;;;;;5011520;28;20026;-83
2021/07/10 02:20:06;;;;;;;15.77;11.02;;;15.00;99.90;;;;;;5027839;28;20092;-82
2021/07/10 02:22:33;;;;;;;15.85;10.90;;;15.10;99.90;;;;;;5011420;28;20037;-83
2021/07/10 02:24:59;;;;;;;15.60;10.07;;;15.10;99.90;;;;;;5011500;28;20486;-83
2021/07/10 02:27:26;;;;;;;17.95;11.60;;;15.20;99.90;;;;;;5011270;28;20030;-83
2021/07/10 02:29:52;;;;;;;14.27;10.07;;;15.20;99.90;;;;;;5011227;28;20036;-83
2021/07/10 02:32:18;;;;;;;14.20;9.95;;;15.30;99.90;;;;;;5027606;28;20026;-82
2021/07/10 02:34:43;;;;;;;18.20;10.68;;;15.30;99.90;;;;;;5011274;28;20061;-83
2021/07/10 02:37:09;;;;;;;16.88;10.77;;;15.30;99.90;;;;;;5010980;28;20042;-83
2021/07/10 02:39:34;;;;;;;16.40;11.10;;;15.30;99.90;;;;;;5011079;28;20026;-83
2021/07/10 02:42:00;;;;;;;16.92;10.90;;;15.30;99.90;;;;;;5028666;28;20030;-83
2021/07/10 02:44:25;;;;;;;17.67;11.43;;;15.30;99.90;;;;;;5027425;28;20034;-82
2021/07/10 02:46:55;;;;;;;15.45;11.10;;;15.30;99.90;;;;;;5013238;28;20055;-82
2021/07/10 02:53:28;;;;;;;17.73;11.38;;;15.10;99.90;;;;;;5046841;28;20052;-82
2021/07/10 02:55:53;;;;;;;15.00;10.70;;;15.00;99.90;;;;;;5030037;28;20518;-83
2021/07/10 02:58:19;;;;;;;14.93;10.90;;;14.90;99.90;;;;;;5033908;28;20033;-82
2021/07/10 03:00:44;;;;;;;14.60;11.18;;;14.80;99.90;;;;;;5050710;28;20028;-83
2021/07/10 03:03:10;;;;;;;14.77;10.32;;;14.70;99.90;;;;;;5033689;28;20069;-83
2021/07/10 03:05:37;;;;;;;15.57;10.32;;;14.70;99.90;;;;;;5033798;28;20487;-83
2021/07/10 03:08:04;;;;;;;16.10;10.55;;;14.80;99.90;;;;;;5049845;28;20049;-83
2021/07/10 03:10:31;;;;;;;14.95;10.18;;;14.70;99.90;;;;;;5050139;28;20033;-82
2021/07/10 03:12:58;;;;;;;14.35;10.57;;;14.70;99.90;;;;;;5050305;28;20032;-82
2021/07/10 03:15:25;;;;;;;17.92;11.57;;;14.70;99.90;;;;;;5050215;28;20177;-83
2021/07/10 03:17:50;;;;;;;15.60;11.57;;;14.60;99.90;;;;;;5033001;28;20029;-82
2021/07/10 03:20:19;;;;;;;17.60;11.77;;;14.60;99.90;;;;;;5049102;28;20040;-83
2021/07/10 03:22:45;;;;;;;17.25;11.40;;;14.60;99.90;;;;;;5049803;28;20029;-83
2021/07/10 03:25:12;;;;;;;15.48;11.38;;;14.60;99.90;;;;;;5033342;28;20127;-83
2021/07/10 03:27:38;;;;;;;14.15;10.10;;;14.50;99.90;;;;;;5033085;28;20039;-83
2021/07/10 03:30:06;;;;;;;15.45;10.88;;;14.60;99.90;;;;;;5033255;28;20033;-82
2021/07/10 03:32:31;;;;;;;15.07;11.05;;;14.60;99.90;;;;;;5033345;28;20097;-83
2021/07/10 03:34:57;;;;;;;16.85;10.82;;;14.60;99.90;;;;;;5033238;28;20040;-83
2021/07/10 03:37:22;;;;;;;18.67;12.02;;;14.60;99.90;;;;;;5033175;28;20036;-83
2021/07/10 03:39:48;;;;;;;17.15;11.82;;;14.50;99.90;;;;;;5033046;28;20036;-83
2021/07/10 03:42:14;;;;;;;15.70;11.13;;;14.40;99.90;;;;;;5066852;28;20029;-83
2021/07/10 03:44:39;;;;;;;15.40;11.68;;;14.50;99.90;;;;;;5048981;28;20033;-83
2021/07/10 03:47:25;;;;;;;14.93;10.73;;;14.50;99.90;;;;;;5047649;28;20025;-82
2021/07/10 03:49:51;;;;;;;16.92;11.43;;;14.50;99.90;;;;;;4994417;28;20049;-82
2021/07/10 03:52:17;;;;;;;16.23;12.68;;;14.50;99.90;;;;;;5007549;28;20073;-83
2021/07/10 03:54:42;;;;;;;16.25;11.38;;;14.50;99.90;;;;;;5004573;28;20041;-83
2021/07/10 03:57:08;;;;;;;16.63;11.02;;;14.50;99.90;;;;;;4991263;28;20034;-83
2021/07/10 03:59:34;;;;;;;17.70;11.55;;;14.50;99.90;;;;;;5007692;28;20025;-82
2021/07/10 04:01:59;;;;;;;16.85;11.55;;;14.50;99.90;;;;;;4992631;28;20042;-84
2021/07/10 04:04:25;;;;;;;18.38;12.15;;;14.40;99.90;;;;;;5009389;28;20048;-83
2021/07/10 04:06:51;;;;;;;15.93;10.70;;;14.40;99.90;;;;;;4992530;28;20068;-82
2021/07/10 04:09:16;;;;;;;16.02;11.35;;;14.50;99.90;;;;;;5007148;28;20042;-82
2021/07/10 04:11:42;;;;;;;16.92;11.88;;;14.50;99.90;;;;;;4991389;28;20037;-83
2021/07/10 04:14:08;;;;;;;17.92;12.63;;;14.50;99.90;;;;;;4991310;28;20038;-83
2021/07/10 04:16:33;;;;;;;16.70;11.77;;;14.50;99.90;;;;;;4991143;28;20030;-83
2021/07/10 04:18:59;;;;;;;16.05;11.35;;;14.50;99.90;;;;;;4990960;28;20102;-83
2021/07/10 04:21:24;;;;;;;15.15;11.55;;;14.60;99.90;;;;;;5007496;28;20034;-83
2021/07/10 04:23:50;;;;;;;17.70;11.57;;;14.60;99.90;;;;;;4990862;28;20536;-83
2021/07/10 04:26:16;;;;;;;14.45;10.90;;;14.60;99.90;;;;;;4991539;28;20042;-83
2021/07/10 04:28:42;;;;;;;17.25;11.95;;;14.60;99.90;;;;;;4991856;28;20103;-83
2021/07/10 04:31:07;;;;;;;16.17;11.73;;;14.70;99.90;;;;;;4991837;28;20234;-83
2021/07/10 04:33:33;;;;;;;15.80;11.98;;;14.70;99.90;;;;;;4992186;28;20093;-83
2021/07/10 04:35:59;;;;;;;17.98;13.18;;;14.80;99.90;;;;;;4992200;28;20029;-83
2021/07/10 04:38:24;;;;;;;21.83;13.65;;;15.00;99.90;;;;;;4991556;28;20029;-83
2021/07/10 04:40:50;;;;;;;18.40;12.68;;;15.00;99.90;;;;;;4992019;28;20044;-83
2021/07/10 04:43:16;;;;;;;17.10;12.85;;;15.00;99.90;;;;;;4991900;28;20045;-83
2021/07/10 04:45:41;;;;;;;16.85;12.73;;;15.10;99.90;;;;;;4992168;28;20113;-83
2021/07/10 04:48:07;;;;;;;16.63;12.98;;;15.20;99.90;;;;;;5003174;28;20037;-82
2021/07/10 04:50:33;;;;;;;19.30;13.32;;;15.30;99.90;;;;;;4999727;28;20096;-82
2021/07/10 04:52:59;;;;;;;21.25;14.75;;;15.40;99.90;;;;;;5007690;28;20050;-83
2021/07/10 04:55:24;;;;;;;19.50;14.07;;;15.60;99.90;;;;;;5003384;28;20036;-83
2021/07/10 04:57:50;;;;;;;21.88;15.65;;;15.70;99.90;;;;;;5045159;28;20036;-82
2021/07/10 05:00:18;;;;;;;23.15;17.38;;;15.90;99.90;;;;;;5010911;28;20033;-82
2021/07/10 05:02:45;;;;;;;26.23;17.58;;;16.00;99.90;;;;;;5027421;28;20030;-82
2021/07/10 05:05:12;;;;;;;21.98;16.38;;;16.20;99.90;;;;;;5027174;28;20041;-81
2021/07/10 05:07:37;;;;;;;25.05;17.30;;;16.20;99.90;;;;;;5010721;28;20057;-82
2021/07/10 05:10:05;;;;;;;24.23;17.23;;;16.40;99.90;;;;;;5010709;28;20109;-83
2021/07/10 05:12:31;;;;;;;21.17;16.10;;;16.50;99.90;;;;;;5011027;28;20037;-82
2021/07/10 05:14:57;;;;;;;23.27;16.35;;;16.60;99.90;;;;;;5027365;28;20037;-81
2021/07/10 05:17:23;;;;;;;22.38;16.73;;;16.70;99.90;;;;;;5010674;28;20029;-82
2021/07/10 05:19:49;;;;;;;26.88;18.80;;;16.80;99.90;;;;;;5010734;28;20033;-82
2021/07/10 05:22:16;;;;;;;22.30;18.02;;;16.80;99.90;;;;;;5027180;28;20037;-83
2021/07/10 05:24:42;;;;;;;25.42;18.95;;;16.80;99.90;;;;;;5027080;28;20029;-82
2021/07/10 05:27:08;;;;;;;23.80;16.10;;;16.80;99.90;;;;;;5010719;28;20037;-82
2021/07/10 05:29:34;;;;;;;22.42;15.48;;;16.90;99.90;;;;;;5026972;28;20293;-82
2021/07/10 05:32:00;;;;;;;23.55;15.45;;;16.90;99.90;;;;;;5027139;28;20100;-83
2021/07/10 05:34:26;;;;;;;26.65;16.02;;;17.00;99.90;;;;;;5010677;28;20061;-83
2021/07/10 05:36:52;;;;;;;23.00;14.65;;;17.10;99.90;;;;;;5027261;28;20390;-82
2021/07/10 05:39:18;;;;;;;23.85;15.18;;;17.20;99.90;;;;;;5026756;28;20075;-82
2021/07/10 05:41:44;;;;;;;17.77;13.48;;;17.30;99.90;;;;;;5010827;28;20029;-82
2021/07/10 05:44:10;;;;;;;20.80;15.20;;;17.40;99.90;;;;;;5014243;28;20021;-84
2021/07/10 05:46:56;;;;;;;23.17;15.30;;;17.50;99.90;;;;;;5030248;28;20052;-82
2021/07/10 05:49:21;;;;;;;23.33;15.52;;;17.50;99.90;;;;;;4974170;28;20066;-83
2021/07/10 05:51:47;;;;;;;24.52;16.45;;;17.70;99.90;;;;;;4936242;29;20027;-84
2021/07/10 05:54:13;;;;;;;18.33;13.15;;;17.90;99.90;;;;;;4973165;28;20050;-84
2021/07/10 05:56:38;;;;;;;25.60;17.02;;;18.00;99.90;;;;;;4975337;28;20058;-84
2021/07/10 05:59:04;;;;;;;23.60;16.75;;;18.10;99.90;;;;;;4996621;28;20045;-84
2021/07/10 06:01:29;;;;;;;23.35;16.63;;;18.20;99.90;;;;;;4987350;28;20038;-83
2021/07/10 06:03:55;;;;;;;26.17;18.77;;;18.40;99.90;;;;;;4985341;28;20042;-83
2021/07/10 06:06:21;;;;;;;28.95;19.42;;;18.50;99.90;;;;;;4990398;28;20124;-84
2021/07/10 06:08:46;;;;;;;24.40;18.08;;;18.60;99.90;;;;;;4990400;28;20406;-84
2021/07/10 06:11:12;;;;;;;23.95;17.60;;;18.90;99.90;;;;;;4990375;28;20030;-84
2021/07/10 06:13:38;;;;;;;24.42;17.80;;;19.10;99.90;;;;;;4990618;28;20454;-84
2021/07/10 06:16:04;;;;;;;28.15;20.65;;;19.20;99.90;;;;;;4990385;28;20038;-84
2021/07/10 06:18:30;;;;;;;20.85;15.63;;;19.20;99.90;;;;;;4990305;28;20035;-84
2021/07/10 06:20:55;;;;;;;24.13;17.15;;;19.30;99.90;;;;;;4990480;28;20073;-84
2021/07/10 06:23:21;;;;;;;24.10;17.40;;;19.40;99.90;;;;;;4974188;28;20079;-84
2021/07/10 06:25:47;;;;;;;21.63;15.95;;;19.30;99.90;;;;;;4999831;28;20397;-84
2021/07/10 06:28:12;;;;;;;21.30;16.40;;;19.50;99.90;;;;;;5013946;28;20079;-84
2021/07/10 06:30:38;;;;;;;27.88;18.08;;;19.70;99.90;;;;;;5030375;28;20065;-84
2021/07/10 06:33:04;;;;;;;19.50;13.55;;;19.60;99.90;;;;;;5030499;28;20061;-83
2021/07/10 06:35:30;;;;;;;20.30;15.93;;;20.00;99.90;;;;;;5014071;28;20060;-84
2021/07/10 06:37:56;;;;;;;19.23;13.43;;;20.10;99.90;;;;;;5013754;28;20477;-84
2021/07/10 06:40:22;;;;;;;21.90;15.13;;;20.20;99.90;;;;;;5030230;28;20022;-84
2021/07/10 06:42:47;;;;;;;21.25;14.13;;;20.10;99.90;;;;;;5030130;28;20077;-83
2021/07/10 06:45:16;;;;;;;18.77;12.70;;;20.50;99.90;;;;;;5029960;28;20030;-83
2021/07/10 06:47:42;;;;;;;22.33;15.87;;;20.60;99.90;;;;;;5036559;28;20093;-83
2021/07/10 06:50:10;;;;;;;19.65;13.82;;;20.60;99.90;;;;;;5021861;28;20111;-83
2021/07/10 06:52:37;;;;;;;20.15;14.40;;;20.50;99.90;;;;;;5029489;28;20039;-82
2021/07/10 06:55:06;;;;;;;23.38;15.80;;;20.20;99.90;;;;;;5038472;28;20056;-82
2021/07/10 06:57:32;;;;;;;23.50;17.08;;;19.90;99.90;;;;;;5032536;28;20025;-82
2021/07/10 06:59:57;;;;;;;18.67;14.05;;;19.70;99.90;;;;;;5033023;28;20485;-82
2021/07/10 07:02:23;;;;;;;21.52;14.63;;;19.80;99.90;;;;;;5049371;28;20457;-82
2021/07/10 07:04:48;;;;;;;17.83;13.02;;;19.90;99.90;;;;;;5032719;28;20036;-82
2021/07/10 07:07:14;;;;;;;21.30;13.90;;;20.20;99.90;;;;;;5049280;28;20040;-82
2021/07/10 07:09:39;;;;;;;17.85;12.60;;;20.30;99.90;;;;;;5049083;28;20043;-82
2021/07/10 07:12:06;;;;;;;23.98;16.50;;;20.20;99.90;;;;;;5048819;28;20057;-82
2021/07/10 07:14:34;;;;;;;26.95;18.30;;;20.00;99.90;;;;;;5032827;28;20394;-82
2021/07/10 07:16:59;;;;;;;21.45;14.90;;;20.20;99.90;;;;;;5031988;28;20051;-82
2021/07/10 07:19:26;;;;;;;25.30;15.57;;;20.50;99.90;;;;;;5066719;28;20055;-82
2021/07/10 07:21:53;;;;;;;23.15;15.82;;;20.10;99.90;;;;;;5032278;28;20037;-81
2021/07/10 07:24:19;;;;;;;23.02;16.75;;;19.80;99.90;;;;;;5032372;28;20039;-82
2021/07/10 07:26:45;;;;;;;29.65;19.23;;;19.60;99.90;;;;;;5031720;28;20053;-82
2021/07/10 07:29:10;;;;;;;25.88;17.20;;;19.60;99.90;;;;;;5031110;28;20135;-82
2021/07/10 07:31:36;;;;;;;28.63;18.50;;;19.90;99.90;;;;;;5031971;28;20468;-81
2021/07/10 07:34:02;;;;;;;26.75;17.70;;;19.80;99.90;;;;;;5031365;28;20041;-82
2021/07/10 07:36:28;;;;;;;23.90;15.85;;;20.00;99.90;;;;;;5012569;28;20030;-80
2021/07/10 07:38:54;;;;;;;24.05;16.10;;;20.10;99.90;;;;;;5012196;28;20072;-81
2021/07/10 07:41:20;;;;;;;19.92;14.20;;;19.60;99.90;;;;;;5029002;28;20029;-81
2021/07/10 07:43:46;;;;;;;22.63;15.00;;;19.90;99.90;;;;;;5012248;28;20100;-81
2021/07/10 07:46:13;;;;;;;17.90;12.52;;;20.20;99.90;;;;;;5012327;28;20445;-81
2021/07/10 07:48:43;;;;;;;18.95;12.90;;;20.50;99.90;;;;;;5047024;23;20224;-81
2021/07/10 07:51:11;;;;;;;23.40;15.70;;;20.70;99.90;;;;;;5031473;28;20037;-81
2021/07/10 07:53:37;;;;;;;19.50;13.15;;;21.10;99.90;;;;;;5012737;28;20451;-81
2021/07/10 07:56:06;;;;;;;18.42;12.85;;;20.90;99.90;;;;;;5046396;28;20384;-81
2021/07/10 07:58:34;;;;;;;16.65;12.05;;;21.00;99.90;;;;;;5066407;28;20040;-82
2021/07/10 08:01:00;;;;;;;22.13;16.00;;;20.80;99.90;;;;;;5032012;28;20033;-82
2021/07/10 08:03:28;;;;;;;21.80;16.33;;;20.60;99.90;;;;;;5048601;28;20056;-81
2021/07/10 08:05:54;;;;;;;23.70;16.88;;;20.20;99.90;;;;;;5031356;28;20029;-82
2021/07/10 08:08:19;;;;;;;15.65;11.70;;;20.00;99.90;;;;;;5048650;28;20124;-82
2021/07/10 08:10:45;;;;;;;14.35;10.40;;;20.60;99.90;;;;;;5029006;28;20041;-82
2021/07/10 08:13:11;;;;;;;14.40;10.80;;;21.20;99.90;;;;;;5028162;28;20060;-81
2021/07/10 08:15:36;;;;;;;15.80;11.40;;;21.30;99.90;;;;;;5011808;28;20030;-82
2021/07/10 08:18:02;;;;;;;16.65;12.13;;;21.30;99.90;;;;;;5027640;28;20025;-82
2021/07/10 08:20:28;;;;;;;21.52;13.90;;;21.80;99.90;;;;;;5028384;28;20462;-82
2021/07/10 08:22:54;;;;;;;21.52;14.05;;;21.30;99.90;;;;;;5027904;28;20025;-82
2021/07/10 08:25:20;;;;;;;20.25;13.25;;;20.60;99.90;;;;;;5027993;28;20032;-82
2021/07/10 08:27:46;;;;;;;18.52;14.15;;;20.80;99.90;;;;;;5027531;28;20030;-82
2021/07/10 08:30:15;;;;;;;21.83;15.52;;;21.10;99.90;;;;;;5028106;28;20041;-82
2021/07/10 08:32:45;;;;;;;21.33;13.80;;;21.20;99.90;;;;;;5028030;28;20049;-82
2021/07/10 08:35:11;;;;;;;14.55;11.18;;;21.10;99.90;;;;;;5027933;28;20033;-82
2021/07/10 08:37:37;;;;;;;17.02;11.40;;;21.10;99.90;;;;;;5011246;28;20037;-82
2021/07/10 08:40:05;;;;;;;13.60;10.45;;;21.00;99.90;;;;;;5027830;28;20049;-82
2021/07/10 08:42:31;;;;;;;15.10;10.70;;;21.10;99.90;;;;;;5026773;28;20114;-82
2021/07/10 08:45:00;;;;;;;10.88;7.32;;;21.10;99.90;;;;;;5027135;28;20135;-83
2021/07/10 08:47:26;;;;;;;11.50;7.82;;;21.70;99.90;;;;;;5026401;28;20030;-83
2021/07/10 08:49:52;;;;;;;8.13;5.40;;;21.40;99.90;;;;;;5027596;28;20045;-83
2021/07/10 08:52:18;;;;;;;12.32;8.55;;;21.60;99.90;;;;;;5027603;28;20577;-83
2021/07/10 08:54:44;;;;;;;9.75;6.10;;;21.10;99.90;;;;;;5033530;28;20161;-82
2021/07/10 08:57:13;;;;;;;10.18;4.72;;;21.10;99.90;;;;;;5021315;28;20030;-83
2021/07/10 08:59:39;;;;;;;5.28;3.85;;;21.30;99.90;;;;;;5010808;28;20076;-84
2021/07/10 09:02:05;;;;;;;3.67;2.83;;;22.10;99.90;;;;;;5010456;28;20494;-83
2021/07/10 09:04:31;;;;;;;8.45;5.72;;;22.20;99.90;;;;;;5027641;28;20033;-84
2021/07/10 09:06:56;;;;;;;7.75;4.60;;;22.00;99.90;;;;;;5044794;28;20033;-84
2021/07/10 09:09:44;;;;;;;9.52;6.45;;;22.30;99.90;;;;;;5010965;28;20125;-84
2021/07/10 09:12:10;;;;;;;5.47;3.65;;;21.80;99.90;;;;;;5027765;28;20025;-84
2021/07/10 09:14:36;;;;;;;6.45;3.67;;;21.80;99.90;;;;;;5027294;28;20078;-84
2021/07/10 09:17:24;;;;;;;7.63;5.10;;;22.20;99.90;;;;;;5027141;28;20120;-84
2021/07/10 09:19:52;;;;;;;4.93;3.25;;;21.60;99.90;;;;;;5027590;28;20033;-84
2021/07/10 09:22:30;;;;;;;5.95;4.97;;;22.10;99.90;;;;;;5011015;28;20042;-84
2021/07/10 09:24:57;;;;;;;5.80;4.07;;;21.90;99.90;;;;;;5010937;28;20029;-84
2021/07/10 09:27:22;;;;;;;6.63;4.65;;;22.10;99.90;;;;;;5026732;28;20044;-84
2021/07/10 09:29:49;;;;;;;7.68;4.75;;;21.90;99.90;;;;;;5026868;28;20037;-83
2021/07/10 09:32:23;;;;;;;4.70;2.22;;;21.70;99.90;;;;;;5015166;28;20084;-84
2021/07/10 09:34:52;;;;;;;5.50;2.90;;;21.50;99.90;;;;;;5033353;28;20048;-84
2021/07/10 09:37:20;;;;;;;5.55;3.00;;;21.40;99.90;;;;;;5027117;28;20064;-84
2021/07/10 09:40:00;;;;;;;3.88;2.25;;;22.00;99.90;;;;;;5027068;28;20034;-84
2021/07/10 09:42:33;;;;;;;5.22;3.65;;;22.20;99.90;;;;;;5027586;28;20064;-84
2021/07/10 09:45:00;;;;;;;4.22;1.95;;;21.80;99.90;;;;;;5044724;28;20025;-84
2021/07/10 09:47:34;;;;;;;2.85;1.88;;;22.50;99.90;;;;;;5026234;28;20041;-83
2021/07/10 09:50:01;;;;;;;3.75;2.03;;;23.10;99.90;;;;;;5026789;28;20046;-82
2021/07/10 09:52:32;;;;;;;4.22;1.58;;;22.70;99.90;;;;;;5010418;28;20030;-82
2021/07/10 09:55:12;;;;;;;3.63;2.35;;;23.00;99.90;;;;;;5037110;28;20037;-83
2021/07/10 09:57:40;;;;;;;2.42;1.52;;;22.20;99.90;;;;;;5049687;28;20291;-83
2021/07/10 10:00:18;;;;;;;2.30;1.38;;;22.60;99.90;;;;;;5050026;28;20032;-82
2021/07/10 10:02:47;;;;;;;3.75;2.20;;;23.20;99.90;;;;;;5049883;28;20055;-83
2021/07/10 10:05:15;;;;;;;3.08;1.52;;;22.90;99.90;;;;;;5066436;28;20508;-83
2021/07/10 10:07:48;;;;;;;4.15;2.08;;;23.10;99.90;;;;;;5049621;28;20043;-83
2021/07/10 10:10:23;;;;;;;7.28;3.28;;;22.80;99.90;;;;;;5049762;28;20033;-83
2021/07/10 10:13:13;;;;;;;6.35;3.95;;;22.20;99.90;;;;;;5066508;28;20091;-83
2021/07/10 10:15:46;;;;;;;4.78;3.13;;;21.80;99.90;;;;;;5058785;28;20040;-83
2021/07/10 10:18:15;;;;;;;7.20;3.97;;;21.50;99.90;;;;;;5066060;28;20104;-83
2021/07/10 10:20:41;;;;;;;5.00;2.30;;;21.70;99.90;;;;;;5050103;28;20097;-83
2021/07/10 10:23:07;;;;;;;6.97;4.93;;;21.80;99.90;;;;;;5066191;28;20030;-83
2021/07/10 10:25:34;;;;;;;6.93;3.97;;;21.40;99.90;;;;;;5084476;28;20043;-83
2021/07/10 10:28:03;;;;;;;9.13;4.63;;;21.50;99.90;;;;;;5084278;28;20111;-83
2021/07/10 10:30:29;;;;;;;6.20;3.80;;;21.30;99.90;;;;;;5069922;28;20096;-83
2021/07/10 10:32:55;;;;;;;5.63;4.32;;;21.60;99.90;;;;;;5053416;28;20048;-83
2021/07/10 10:35:21;;;;;;;6.13;3.10;;;21.50;99.90;;;;;;5069897;28;20078;-83
2021/07/10 10:37:47;;;;;;;9.88;5.82;;;21.60;99.90;;;;;;5053091;28;20064;-83
2021/07/10 10:40:20;;;;;;;9.00;5.38;;;21.50;99.90;;;;;;5069757;28;20067;-83
2021/07/10 10:42:55;;;;;;;5.78;3.97;;;21.40;99.90;;;;;;5053137;28;20435;-83
2021/07/10 10:45:29;;;;;;;6.35;3.67;;;21.50;99.90;;;;;;5069767;28;20033;-83
2021/07/10 10:47:55;;;;;;;7.30;5.20;;;21.90;99.90;;;;;;5068957;28;20036;-83
2021/07/10 10:50:29;;;;;;;7.68;6.18;;;21.90;99.90;;;;;;5087725;28;20039;-84
2021/07/10 10:52:56;;;;;;;6.60;4.57;;;22.20;99.90;;;;;;5053071;28;20024;-84
2021/07/10 10:55:28;;;;;;;4.05;2.72;;;23.10;99.90;;;;;;5062714;28;20036;-84
2021/07/10 10:58:10;;;;;;;6.53;4.35;;;22.90;99.90;;;;;;5052771;28;20039;-85
2021/07/10 11:00:37;;;;;;;6.10;4.35;;;22.80;99.90;;;;;;5052651;28;20126;-84
2021/07/10 11:03:06;;;;;;;5.28;3.40;;;22.80;99.90;;;;;;5052696;28;20043;-84
2021/07/10 11:05:31;;;;;;;4.25;2.28;;;23.00;99.90;;;;;;5052785;28;20033;-83
2021/07/10 11:08:22;;;;;;;3.80;2.38;;;23.90;99.90;;;;;;5069138;28;20033;-84
2021/07/10 11:10:53;;;;;;;3.40;2.05;;;23.90;99.90;;;;;;5069176;28;20280;-84
2021/07/10 11:13:33;;;;;;;3.67;2.08;;;24.30;99.90;;;;;;5069215;28;20036;-83
2021/07/10 11:16:18;;;;;;;3.40;1.55;;;23.90;99.90;;;;;;5052338;28;20036;-84
2021/07/10 11:18:58;;;;;;;5.30;2.53;;;24.20;99.90;;;;;;5069019;28;20066;-83
2021/07/10 11:21:41;;;;;;;4.35;2.60;;;23.90;99.90;;;;;;5052432;28;20127;-83
2021/07/10 11:24:16;;;;;;;4.05;1.77;;;23.50;99.90;;;;;;5052471;28;20039;-83
2021/07/10 11:26:54;;;;;;;5.82;2.72;;;23.80;99.90;;;;;;5052216;28;20066;-83
2021/07/10 11:29:25;;;;;;;6.00;3.38;;;23.40;99.90;;;;;;5052084;28;20117;-83
2021/07/10 11:31:52;;;;;;;3.45;2.50;;;23.20;99.90;;;;;;5052125;28;20275;-83
2021/07/10 11:34:35;;;;;;;2.75;1.90;;;23.60;99.90;;;;;;5068805;28;20476;-83
2021/07/10 11:37:15;;;;;;;4.28;2.38;;;24.20;99.90;;;;;;5051909;28;20028;-83
2021/07/10 11:39:53;;;;;;;3.80;1.42;;;24.60;99.90;;;;;;5067883;28;20056;-83
2021/07/10 11:42:18;;;;;;;3.55;2.22;;;25.10;99.90;;;;;;5051885;28;20173;-84
2021/07/10 11:44:50;;;;;;;5.13;3.05;;;24.70;99.90;;;;;;5086585;28;20048;-84
2021/07/10 11:47:31;;;;;;;5.10;2.72;;;24.40;99.90;;;;;;5051450;28;20055;-84
2021/07/10 11:49:57;;;;;;;4.55;3.05;;;24.10;99.90;;;;;;5051906;28;20047;-84
2021/07/10 11:52:24;;;;;;;4.53;2.80;;;24.00;99.90;;;;;;5052021;28;20032;-84
2021/07/10 11:54:53;;;;;;;4.18;1.88;;;24.40;99.90;;;;;;5061914;28;20044;-84
2021/07/10 11:57:19;;;;;;;2.90;2.28;;;25.50;99.90;;;;;;5068179;28;20056;-84
2021/07/10 11:59:46;;;;;;;3.90;2.60;;;25.30;99.90;;;;;;5052014;28;20036;-84
2021/07/10 12:02:27;;;;;;;4.53;2.78;;;25.60;99.90;;;;;;5068388;28;20029;-85
2021/07/10 12:05:13;;;;;;;3.17;2.13;;;24.70;99.90;;;;;;5053124;28;20032;-85
2021/07/10 12:07:51;;;;;;;2.45;1.00;;;25.00;99.90;;;;;;5052889;28;20541;-84
2021/07/10 12:10:40;;;;;;;2.47;1.40;;;25.70;99.90;;;;;;5068922;28;20064;-84
2021/07/10 12:13:07;;;;;;;3.70;1.73;;;25.80;99.90;;;;;;5068413;28;20050;-85
2021/07/10 12:15:48;;;;;;;5.68;3.55;;;24.50;99.90;;;;;;5086344;28;20028;-85
2021/07/10 12:18:15;;;;;;;2.58;1.83;;;23.90;99.90;;;;;;5051161;28;20048;-84
2021/07/10 12:20:50;;;;;;;3.22;1.65;;;24.00;99.90;;;;;;5086333;28;20111;-85
2021/07/10 12:23:40;;;;;;;2.97;1.63;;;24.30;99.90;;;;;;5051493;28;20024;-84
2021/07/10 12:26:11;;;;;;;2.05;1.00;;;24.70;99.90;;;;;;5042371;28;20036;-85
2021/07/10 12:29:07;;;;;;;4.72;1.67;;;24.80;99.90;;;;;;5011467;28;20045;-85
2021/07/10 12:31:36;;;;;;;4.30;1.50;;;24.70;99.90;;;;;;5003544;28;20053;-84
2021/07/10 12:34:09;;;;;;;2.60;1.15;;;25.30;99.90;;;;;;5028132;28;20038;-84
2021/07/10 12:36:44;;;;;;;2.83;1.10;;;25.50;99.90;;;;;;5029946;28;20496;-84
2021/07/10 12:39:21;;;;;;;3.03;0.95;;;25.70;99.90;;;;;;5028115;28;20030;-84
2021/07/10 12:41:58;;;;;;;2.92;1.35;;;25.60;99.90;;;;;;5027939;28;20053;-84